Time;durP1;ratioP1;P1;durP2;ratioP2;P2;SDS_P1;SDS_P2;PMS_P1;PMS_P2;Temp;Humidity;BMP_temperature;BMP_pressure;BME280_temperature;BME280_humidity;BME280_pressure;Samples;Min_cycle;Max_cycle;Signal;HPM_P1;HPM_P2
2022/11/04 00:01:50;;;;;;;0.50;0.50;;;;;;;12.86;100.00;99104.66;5051565;28;20521;-55
2022/11/04 00:04:18;;;;;;;0.60;0.47;;;;;;;12.77;100.00;99113.19;5038780;28;20913;-56
2022/11/04 00:06:45;;;;;;;0.80;0.67;;;;;;;12.63;100.00;99117.50;5048019;28;20471;-54
2022/11/04 00:09:16;;;;;;;0.40;0.30;;;;;;;12.82;100.00;99103.09;5045423;28;21026;-55
2022/11/04 00:14:29;;;;;;;1.67;0.50;;;;;;;12.77;100.00;99113.19;5045186;28;20520;-55
2022/11/04 00:33:24;;;;;;;0.30;0.20;;;;;;;12.80;100.00;99115.69;5030777;28;20799;-55
2022/11/04 00:33:46;;;;;;;0.50;0.40;;;;;;;12.86;100.00;99115.31;5031135;28;20455;-54
2022/11/04 00:36:12;;;;;;;0.60;0.40;;;;;;;12.74;100.00;99115.06;5044302;28;20474;-54
2022/11/04 00:38:39;;;;;;;0.40;0.40;;;;;;;12.80;100.00;99115.69;5050623;28;20458;-54
2022/11/04 00:41:24;;;;;;;0.30;0.20;;;;;;;12.82;100.00;99114.63;5050346;28;20501;-55
2022/11/04 00:43:52;;;;;;;0.50;0.40;;;;;;;12.63;100.00;99117.50;5040559;28;20493;-54
2022/11/04 00:46:19;;;;;;;0.53;0.40;;;;;;;12.70;100.00;99121.50;5043528;28;20482;-55
2022/11/04 00:48:45;;;;;;;2.37;0.60;;;;;;;12.62;100.00;99131.78;5040101;28;20482;-54
2022/11/04 00:51:12;;;;;;;7.63;0.40;;;;;;;12.49;100.00;99138.72;5047003;28;20458;-54
2022/11/04 00:53:44;;;;;;;0.50;0.50;;;;;;;12.45;100.00;99142.47;5049873;28;20458;-55
2022/11/04 00:56:10;;;;;;;0.40;0.30;;;;;;;12.70;100.00;99142.00;5036571;28;20471;-55
2022/11/04 00:58:36;;;;;;;0.40;0.30;;;;;;;12.65;100.00;99144.91;5050051;28;20556;-54
2022/11/04 01:01:10;;;;;;;2.13;0.70;;;;;;;12.40;100.00;99150.72;5049514;28;20451;-55
2022/11/04 01:03:37;;;;;;;0.33;0.20;;;;;;;12.34;100.00;99155.53;5047449;28;20459;-56
2022/11/04 01:06:04;;;;;;;0.87;0.87;;;;;;;12.42;100.00;99171.97;5048875;28;20545;-55
2022/11/04 01:08:31;;;;;;;1.50;0.40;;;;;;;12.32;100.00;99187.56;5049941;28;20490;-55
2022/11/04 01:11:07;;;;;;;0.50;0.30;;;;;;;12.62;100.00;99171.75;5049674;28;20946;-55
2022/11/04 01:13:36;;;;;;;0.30;0.20;;;;;;;12.51;100.00;99170.63;5048138;28;20465;-54
2022/11/04 01:16:06;;;;;;;0.50;0.30;;;;;;;12.33;100.00;99167.97;5037569;28;20475;-55
2022/11/04 01:18:32;;;;;;;0.40;0.30;;;;;;;12.35;100.00;99178.59;5049460;28;20494;-54
2022/11/04 01:21:00;;;;;;;0.30;0.30;;;;;;;12.32;100.00;99181.38;5049734;28;20513;-55
2022/11/04 01:23:27;;;;;;;0.80;0.40;;;;;;;12.46;100.00;99178.84;5046400;28;20455;-55
2022/11/04 01:25:54;;;;;;;0.40;0.40;;;;;;;12.21;100.00;99186.47;5049153;28;20886;-54
2022/11/04 01:28:20;;;;;;;0.60;0.40;;;;;;;12.36;100.00;99183.81;5049341;28;20447;-54
2022/11/04 01:30:47;;;;;;;0.47;0.30;;;;;;;12.14;100.00;99183.25;5049510;28;20524;-55
2022/11/04 01:33:13;;;;;;;0.40;0.30;;;;;;;12.07;100.00;99182.72;5043026;28;20450;-54
2022/11/04 01:35:39;;;;;;;0.30;0.20;;;;;;;12.05;100.00;99179.25;5038868;28;20457;-54
2022/11/04 01:38:06;;;;;;;0.40;0.30;;;;;;;12.03;100.00;99177.59;5049216;28;20989;-54
2022/11/04 01:40:40;;;;;;;0.37;0.30;;;;;;;11.99;100.00;99182.25;5049185;28;20938;-53
2022/11/04 01:43:19;;;;;;;0.40;0.30;;;;;;;11.97;100.00;99189.47;5044738;28;20466;-55
2022/11/04 01:45:50;;;;;;;0.30;0.20;;;;;;;11.93;100.00;99182.56;5042294;28;20882;-55
2022/11/04 01:48:31;;;;;;;0.77;0.30;;;;;;;12.10;100.00;99179.88;5036075;28;20512;-54
2022/11/04 01:50:58;;;;;;;0.57;0.40;;;;;;;12.14;100.00;99170.78;5049021;28;20477;-54
2022/11/04 01:53:38;;;;;;;2.67;0.50;;;;;;;11.95;100.00;99170.03;5048967;28;20516;-55
2022/11/04 01:56:10;;;;;;;0.30;0.20;;;;;;;11.85;100.00;99168.78;5048839;28;20478;-54
2022/11/04 01:58:50;;;;;;;0.50;0.30;;;;;;;11.88;100.00;99167.75;5049086;28;20544;-55
2022/11/04 02:01:17;;;;;;;0.40;0.30;;;;;;;11.83;100.00;99170.66;5035238;28;20458;-55
2022/11/04 02:03:49;;;;;;;1.17;0.30;;;;;;;11.78;100.00;99165.53;5034968;28;20446;-54
2022/11/04 02:06:18;;;;;;;0.40;0.30;;;;;;;11.66;100.00;99171.50;5048976;28;20470;-54
2022/11/04 02:08:46;;;;;;;0.40;0.30;;;;;;;11.72;100.00;99168.53;5048857;28;20485;-54
2022/11/04 02:12:48;;;;;;;0.40;0.30;;;;;;;11.62;100.00;99169.06;5048284;28;20506;-54
2022/11/04 02:13:59;;;;;;;0.50;0.40;;;;;;;11.54;100.00;99166.81;5048459;28;20465;-55
2022/11/04 02:16:38;;;;;;;0.50;0.40;;;;;;;11.85;100.00;99176.78;5048427;28;20486;-55
2022/11/04 02:19:20;;;;;;;0.40;0.30;;;;;;;11.67;100.00;99180.34;5048641;28;20848;-54
2022/11/04 02:22:16;;;;;;;0.30;0.30;;;;;;;11.64;100.00;99177.81;5046330;28;20504;-55
2022/11/04 02:25:10;;;;;;;2.60;0.90;;;;;;;11.52;100.00;99179.34;5031002;28;20547;-54
2022/11/04 02:28:08;;;;;;;0.40;0.30;;;;;;;11.47;100.00;99178.69;5048400;28;20898;-54
2022/11/04 02:30:49;;;;;;;0.60;0.40;;;;;;;11.49;100.00;99188.31;5036175;28;20474;-54
2022/11/04 02:33:25;;;;;;;0.90;0.47;;;;;;;11.46;100.00;99187.59;5046116;28;20481;-54
2022/11/04 02:36:04;;;;;;;1.80;0.30;;;;;;;11.35;100.00;99200.56;5048564;28;20536;-54
2022/11/04 02:38:36;;;;;;;0.40;0.30;;;;;;;11.26;100.00;99204.56;5048508;28;20864;-55
2022/11/04 02:41:32;;;;;;;0.50;0.40;;;;;;;11.24;100.00;99209.97;5042566;28;20451;-54
2022/11/04 02:44:13;;;;;;;0.30;0.20;;;;;;;11.22;100.00;99216.28;5048405;28;20890;-54
2022/11/04 02:46:47;;;;;;;1.90;0.43;;;;;;;11.17;100.00;99213.84;5034909;28;20895;-54
2022/11/04 02:49:24;;;;;;;0.30;0.20;;;;;;;11.11;100.00;99219.47;5034922;28;20447;-54
2022/11/04 02:52:02;;;;;;;0.70;0.47;;;;;;;11.01;100.00;99218.19;5048234;28;20997;-54
2022/11/04 02:54:59;;;;;;;0.30;0.20;;;;;;;10.93;100.00;99222.97;5031180;28;20510;-54
2022/11/04 02:57:30;;;;;;;0.60;0.50;;;;;;;10.83;100.00;99217.25;5034022;28;20817;-54
2022/11/04 03:00:06;;;;;;;0.30;0.20;;;;;;;10.68;100.00;99220.59;5038068;28;20443;-53
2022/11/04 03:02:45;;;;;;;0.40;0.30;;;;;;;10.63;100.00;99228.78;5048326;28;20508;-55
2022/11/04 03:05:15;;;;;;;4.60;0.80;;;;;;;10.61;100.00;99225.34;5048442;28;20833;-54
2022/11/04 03:07:45;;;;;;;0.40;0.30;;;;;;;10.50;100.00;99224.97;5041513;28;20517;-54
2022/11/04 03:10:41;;;;;;;0.50;0.43;;;;;;;10.41;100.00;99229.84;5042121;28;20447;-54
2022/11/04 03:13:23;;;;;;;0.40;0.30;;;;;;;10.19;100.00;99222.81;5046774;28;20959;-54
2022/11/04 03:15:57;;;;;;;0.40;0.30;;;;;;;10.03;100.00;99225.28;5052428;28;20536;-56
2022/11/04 03:19:02;;;;;;;1.60;1.37;;;;;;;10.29;100.00;99218.84;5044516;28;20483;-54
2022/11/04 03:21:35;;;;;;;0.53;0.30;;;;;;;10.29;100.00;99226.81;5049208;28;20465;-54
2022/11/04 03:24:03;;;;;;;0.30;0.20;;;;;;;10.13;100.00;99223.06;5044685;28;20451;-55
2022/11/04 03:26:45;;;;;;;0.30;0.20;;;;;;;9.98;100.00;99229.03;5042191;28;20479;-54
2022/11/04 03:29:26;;;;;;;0.63;0.60;;;;;;;10.14;100.00;99234.53;5051336;28;20868;-54
2022/11/04 03:32:18;;;;;;;0.40;0.30;;;;;;;10.02;100.00;99230.66;5049257;28;20450;-54
2022/11/04 03:34:44;;;;;;;8.00;0.33;;;;;;;10.15;100.00;99245.13;5051753;28;20447;-54
2022/11/04 03:37:11;;;;;;;0.60;0.50;;;;;;;10.06;100.00;99251.69;5050815;28;21048;-54
2022/11/04 03:39:38;;;;;;;0.30;0.20;;;;;;;10.04;100.00;99248.25;5051656;28;20872;-54
2022/11/04 03:42:21;;;;;;;0.40;0.40;;;;;;;9.92;100.00;99247.91;5051485;28;20454;-54
2022/11/04 03:44:53;;;;;;;0.50;0.30;;;;;;;9.88;100.00;99246.31;5038128;28;20958;-54
2022/11/04 03:47:23;;;;;;;0.40;0.30;;;;;;;9.94;100.00;99252.22;5050778;28;20538;-54
2022/11/04 03:49:54;;;;;;;3.60;1.27;;;;;;;9.98;100.00;99255.59;5051190;28;20504;-54
2022/11/04 03:52:21;;;;;;;0.43;0.43;;;;;;;9.91;100.00;99265.63;5051657;28;20451;-54
2022/11/04 03:54:47;;;;;;;0.60;0.50;;;;;;;9.80;100.00;99265.19;5051459;28;20884;-54
2022/11/04 03:57:59;;;;;;;0.50;0.40;;;;;;;9.95;100.00;99269.00;5050911;28;20875;-54
2022/11/04 04:00:32;;;;;;;1.13;0.60;;;;;;;9.99;100.00;99271.44;5007227;28;20462;-54
2022/11/04 04:03:12;;;;;;;1.57;0.53;;;;;;;10.28;100.00;99272.00;5038372;28;20512;-54
2022/11/04 04:05:49;;;;;;;0.60;0.60;;;;;;;10.31;100.00;99272.75;5048162;28;21045;-54
2022/11/04 04:08:38;;;;;;;0.40;0.30;;;;;;;10.42;100.00;99274.09;5041827;28;20528;-54
2022/11/04 04:11:49;;;;;;;0.43;0.40;;;;;;;10.35;100.00;99263.72;5051176;28;20516;-54
2022/11/04 04:14:37;;;;;;;8.33;0.50;;;;;;;10.45;100.00;99261.53;4950464;28;20491;-54
2022/11/04 04:17:05;;;;;;;0.50;0.30;;;;;;;10.49;100.00;99244.50;5046431;28;20485;-54
2022/11/04 04:19:33;;;;;;;3.60;0.87;;;;;;;10.47;100.00;99241.06;5051155;28;20487;-54
2022/11/04 04:22:05;;;;;;;1.80;0.80;;;;;;;10.49;100.00;99248.97;5050921;28;20508;-54
2022/11/04 04:27:30;;;;;;;3.67;0.83;;;;;;;10.52;100.00;99233.72;5038103;28;20471;-54
2022/11/04 04:30:11;;;;;;;10.77;1.20;;;;;;;10.61;100.00;99232.47;5050778;28;20443;-55
2022/11/04 04:32:42;;;;;;;3.50;0.70;;;;;;;10.73;100.00;99231.91;5048115;28;20466;-54
2022/11/04 04:44:58;;;;;;;0.37;0.20;;;;;;;10.93;100.00;99229.16;5050923;28;20527;-54
2022/11/04 04:46:27;;;;;;;1.53;1.43;;;;;;;10.67;100.00;99234.81;5050174;28;20474;-54
2022/11/04 04:48:54;;;;;;;1.00;0.63;;;;;;;10.60;100.00;99233.41;5050360;28;20447;-54
2022/11/04 04:51:21;;;;;;;4.67;1.80;;;;;;;10.60;100.00;99228.09;5049915;28;20904;-54
2022/11/04 04:53:47;;;;;;;0.87;0.73;;;;;;;10.54;100.00;99233.66;5049913;28;20455;-53
2022/11/04 04:56:14;;;;;;;1.63;0.60;;;;;;;10.53;100.00;99240.78;5050277;28;20520;-54
2022/11/04 04:58:40;;;;;;;1.03;1.03;;;;;;;10.58;100.00;99233.47;5049902;28;20513;-54
2022/11/04 05:01:07;;;;;;;6.93;1.07;;;;;;;10.42;100.00;99223.63;5049259;28;20873;-54
2022/11/04 05:03:34;;;;;;;0.70;0.60;;;;;;;10.41;100.00;99224.53;5038022;28;20839;-54
2022/11/04 05:06:00;;;;;;;0.40;0.40;;;;;;;10.54;100.00;99229.22;5048983;28;20478;-53
2022/11/04 05:08:27;;;;;;;0.83;0.47;;;;;;;10.47;100.00;99226.91;5049971;28;20499;-54
2022/11/04 05:10:53;;;;;;;12.10;0.67;;;;;;;10.46;100.00;99225.19;5043536;28;21036;-54
2022/11/04 05:13:25;;;;;;;0.63;0.63;;;;;;;10.44;100.00;99225.28;5042558;28;20458;-54
2022/11/04 05:15:52;;;;;;;0.40;0.40;;;;;;;10.45;100.00;99236.75;5029541;28;20518;-53
2022/11/04 05:18:18;;;;;;;1.50;0.50;;;;;;;10.44;100.00;99235.03;5043142;28;20516;-54
2022/11/04 05:20:45;;;;;;;7.90;2.47;;;;;;;10.55;100.00;99230.97;5045032;28;20477;-53
2022/11/04 05:23:12;;;;;;;1.23;1.13;;;;;;;10.66;100.00;99235.75;5047118;28;20487;-55
2022/11/04 05:25:40;;;;;;;3.30;1.03;;;;;;;10.72;100.00;99238.16;5049211;28;20477;-54
2022/11/04 05:28:07;;;;;;;1.63;0.87;;;;;;;10.62;100.00;99244.81;5042040;28;20463;-54
2022/11/04 05:30:34;;;;;;;6.87;1.27;;;;;;;10.57;100.00;99234.41;5027796;28;20487;-54
2022/11/04 05:33:00;;;;;;;0.60;0.53;;;;;;;10.65;100.00;99229.59;5046617;28;20520;-54
2022/11/04 05:35:31;;;;;;;1.73;0.60;;;;;;;10.60;100.00;99230.75;5049833;28;20462;-54
2022/11/04 05:37:57;;;;;;;3.13;0.53;;;;;;;10.57;100.00;99233.53;5045826;28;20551;-54
2022/11/04 05:40:24;;;;;;;0.60;0.50;;;;;;;10.51;100.00;99226.69;5033550;28;20478;-55
2022/11/04 05:42:50;;;;;;;2.30;0.50;;;;;;;10.50;100.00;99232.09;5044665;28;20459;-55
2022/11/04 05:45:17;;;;;;;0.73;0.73;;;;;;;10.40;100.00;99239.59;5043942;28;20478;-55
2022/11/04 05:47:43;;;;;;;1.07;0.97;;;;;;;10.63;100.00;99238.56;5039360;28;20479;-55
2022/11/04 05:50:10;;;;;;;3.37;0.60;;;;;;;10.47;100.00;99226.91;5045362;28;20877;-55
2022/11/04 05:52:36;;;;;;;9.90;1.50;;;;;;;10.53;100.00;99235.47;5039703;28;20462;-54
2022/11/04 05:55:03;;;;;;;0.57;0.50;;;;;;;10.60;100.00;99228.09;5049148;28;20516;-55
2022/11/04 05:57:29;;;;;;;1.33;1.13;;;;;;;10.83;100.00;99227.03;5048952;28;21006;-54
2022/11/04 05:59:55;;;;;;;1.60;1.00;;;;;;;10.87;100.00;99224.16;5048854;28;20486;-54
2022/11/04 06:02:22;;;;;;;0.77;0.77;;;;;;;10.99;100.00;99217.41;5048920;28;20462;-55
2022/11/04 06:04:48;;;;;;;6.00;1.00;;;;;;;11.04;100.00;99220.69;5048934;28;21042;-55
2022/11/04 06:07:15;;;;;;;1.60;0.87;;;;;;;10.97;100.00;99214.81;5048435;28;20820;-55
2022/11/04 06:09:41;;;;;;;0.93;0.90;;;;;;;10.97;100.00;99213.94;5049250;28;20457;-54
2022/11/04 06:12:11;;;;;;;0.90;0.90;;;;;;;10.98;100.00;99211.22;5048863;28;20462;-54
2022/11/04 06:14:37;;;;;;;0.90;0.90;;;;;;;11.02;100.00;99206.59;5048961;28;20459;-55
2022/11/04 06:17:03;;;;;;;3.37;0.77;;;;;;;11.03;100.00;99212.78;5048530;28;20656;-54
2022/11/04 06:19:30;;;;;;;3.30;0.63;;;;;;;10.98;100.00;99219.19;5048748;28;20592;-54
2022/11/04 06:21:56;;;;;;;1.23;0.60;;;;;;;11.00;100.00;99220.91;5048473;28;20454;-55
2022/11/04 06:24:23;;;;;;;0.93;0.93;;;;;;;10.97;100.00;99221.94;5048717;28;21018;-54
2022/11/04 06:26:49;;;;;;;0.63;0.53;;;;;;;10.94;100.00;99222.91;5048696;28;20614;-55
2022/11/04 06:29:16;;;;;;;0.53;0.53;;;;;;;11.05;100.00;99229.53;5048709;28;20485;-55
2022/11/04 06:31:42;;;;;;;1.03;1.00;;;;;;;11.10;100.00;99223.06;5045601;28;20900;-54
2022/11/04 06:34:09;;;;;;;0.70;0.70;;;;;;;11.14;100.00;99229.97;5048530;28;20887;-54
2022/11/04 06:36:35;;;;;;;1.23;1.13;;;;;;;11.14;100.00;99226.44;5048513;28;20506;-54
2022/11/04 06:39:04;;;;;;;2.00;0.77;;;;;;;11.14;100.00;99223.78;5048692;28;20490;-55
2022/11/04 06:41:31;;;;;;;0.80;0.80;;;;;;;11.16;100.00;99229.88;5048716;28;20473;-54
2022/11/04 06:43:57;;;;;;;0.90;0.80;;;;;;;11.15;100.00;99229.03;5048625;28;20454;-55
2022/11/04 06:46:33;;;;;;;0.90;0.70;;;;;;;11.15;100.00;99241.47;5048310;28;21085;-54
2022/11/04 06:48:59;;;;;;;1.37;0.93;;;;;;;11.05;100.00;99249.00;5049562;28;20442;-55
2022/11/04 06:51:26;;;;;;;6.20;1.70;;;;;;;11.13;100.00;99243.34;5052630;28;20450;-55
2022/11/04 06:53:53;;;;;;;1.33;1.27;;;;;;;11.16;100.00;99252.03;5052425;28;20454;-55
2022/11/04 06:56:19;;;;;;;5.40;1.40;;;;;;;11.17;100.00;99258.19;5052309;28;20474;-55
2022/11/04 06:58:50;;;;;;;1.03;1.03;;;;;;;11.24;100.00;99252.53;5052384;28;20977;-54
2022/11/04 07:01:17;;;;;;;1.53;1.33;;;;;;;11.28;100.00;99255.91;5038657;28;20450;-54
2022/11/04 07:03:49;;;;;;;0.93;0.87;;;;;;;11.28;100.00;99259.41;5052084;28;20486;-54
2022/11/04 07:06:16;;;;;;;1.13;1.03;;;;;;;11.30;100.00;99262.00;5052007;28;20999;-55
2022/11/04 07:08:42;;;;;;;12.23;4.07;;;;;;;11.34;100.00;99268.03;5052092;28;20455;-55
2022/11/04 07:11:09;;;;;;;8.33;3.93;;;;;;;11.36;100.00;99260.81;5051894;28;20504;-55
2022/11/04 07:13:35;;;;;;;4.43;3.93;;;;;;;11.38;100.00;99266.97;5051795;28;20506;-55
2022/11/04 07:16:05;;;;;;;12.00;2.77;;;;;;;11.38;100.00;99269.63;5051467;28;20624;-54
2022/11/04 07:18:32;;;;;;;1.17;1.10;;;;;;;11.37;100.00;99287.34;5051695;28;20494;-54
2022/11/04 07:20:59;;;;;;;1.83;1.73;;;;;;;11.40;100.00;99281.06;5051850;28;20935;-55
2022/11/04 07:23:25;;;;;;;0.80;0.80;;;;;;;11.38;100.00;99288.25;5051662;28;20451;-54
2022/11/04 07:25:53;;;;;;;0.77;0.53;;;;;;;11.41;100.00;99304.06;5051538;28;20467;-54
2022/11/04 07:28:19;;;;;;;2.73;0.43;;;;;;;11.48;100.00;99305.47;5051595;28;20450;-55
2022/11/04 07:30:46;;;;;;;0.37;0.30;;;;;;;11.50;100.00;99304.47;5051726;28;20450;-55
2022/11/04 07:33:12;;;;;;;1.63;0.90;;;;;;;11.62;100.00;99302.16;5048795;28;20458;-54
2022/11/04 07:35:39;;;;;;;0.60;0.40;;;;;;;11.55;100.00;99306.91;5051636;28;20480;-55
2022/11/04 07:38:05;;;;;;;6.30;1.20;;;;;;;11.51;100.00;99303.56;5020120;28;20939;-55
2022/11/04 07:40:33;;;;;;;8.30;0.97;;;;;;;11.54;100.00;99302.53;5051497;28;20462;-54
2022/11/04 07:43:00;;;;;;;6.37;1.90;;;;;;;11.51;100.00;99298.22;5051176;28;20454;-55
2022/11/04 07:45:26;;;;;;;2.70;0.43;;;;;;;11.56;100.00;99296.19;5051131;28;20537;-55
2022/11/04 07:47:53;;;;;;;5.60;0.80;;;;;;;11.62;100.00;99311.00;5051374;28;20867;-55
2022/11/04 07:50:19;;;;;;;7.03;0.60;;;;;;;11.65;100.00;99309.97;5051461;28;20458;-54
2022/11/04 07:52:46;;;;;;;0.40;0.40;;;;;;;11.49;100.00;99312.53;5051139;28;20811;-54
2022/11/04 07:55:17;;;;;;;0.70;0.70;;;;;;;11.52;100.00;99312.41;5051160;28;20454;-54
2022/11/04 07:57:47;;;;;;;0.70;0.50;;;;;;;11.53;100.00;99320.31;5050686;28;20482;-55
2022/11/04 08:00:15;;;;;;;5.70;0.40;;;;;;;11.50;100.00;99307.13;5049846;28;20491;-56
2022/11/04 08:02:45;;;;;;;0.77;0.77;;;;;;;11.54;100.00;99319.38;5050946;28;20457;-55
2022/11/04 08:05:15;;;;;;;1.57;1.33;;;;;;;11.48;100.00;99301.00;5051135;28;20954;-54
2022/11/04 08:07:42;;;;;;;1.27;1.17;;;;;;;11.67;100.00;99298.34;5051295;28;20479;-54
2022/11/04 08:10:09;;;;;;;0.53;0.40;;;;;;;11.57;100.00;99297.06;5050741;28;20528;-55
2022/11/04 08:12:37;;;;;;;0.57;0.30;;;;;;;11.71;100.00;99297.25;5050677;28;20450;-54
2022/11/04 08:15:04;;;;;;;3.17;1.00;;;;;;;11.65;100.00;99299.31;5050570;28;20799;-54
2022/11/04 08:17:30;;;;;;;0.50;0.50;;;;;;;11.80;100.00;99295.97;5050454;28;20478;-54
2022/11/04 08:19:56;;;;;;;3.10;1.47;;;;;;;12.17;100.00;99294.97;5050516;28;21032;-57
2022/11/04 08:22:23;;;;;;;5.30;1.27;;;;;;;12.12;100.00;99286.34;5050672;28;20960;-54
2022/11/04 08:24:55;;;;;;;2.40;0.57;;;;;;;12.05;100.00;99283.13;5050425;28;20454;-55
2022/11/04 08:27:22;;;;;;;0.93;0.63;;;;;;;12.05;100.00;99288.44;5050677;28;20471;-54
2022/11/04 08:29:48;;;;;;;0.40;0.30;;;;;;;12.10;100.00;99293.56;5050787;28;20894;-55
2022/11/04 08:32:14;;;;;;;2.80;0.90;;;;;;;12.13;100.00;99298.72;5047709;28;20536;-54
2022/11/04 08:34:41;;;;;;;1.80;1.20;;;;;;;12.17;100.00;99292.28;5050432;28;20461;-54
2022/11/04 08:37:07;;;;;;;0.40;0.40;;;;;;;12.33;100.00;99292.38;5050889;28;20521;-55
2022/11/04 08:39:34;;;;;;;1.57;1.00;;;;;;;12.20;100.00;99300.16;5050361;28;20494;-56
2022/11/04 08:42:00;;;;;;;6.03;0.50;;;;;;;12.14;100.00;99295.13;5050268;28;20451;-56
2022/11/04 08:44:27;;;;;;;9.93;1.50;;;;;;;12.10;100.00;99291.75;5050561;28;20455;-56
2022/11/04 08:46:53;;;;;;;2.93;0.30;;;;;;;12.11;100.00;99296.16;5050086;28;20475;-56
2022/11/04 08:49:19;;;;;;;0.50;0.40;;;;;;;12.11;100.00;99292.63;5050086;28;20967;-56
2022/11/04 08:51:53;;;;;;;1.00;0.90;;;;;;;12.22;100.00;99292.94;5050109;28;20455;-56
2022/11/04 08:54:20;;;;;;;0.57;0.50;;;;;;;12.38;100.00;99290.34;5046999;28;20446;-56
2022/11/04 08:56:46;;;;;;;1.90;0.30;;;;;;;12.43;100.00;99296.28;5050539;28;20474;-56
2022/11/04 08:59:13;;;;;;;1.80;0.40;;;;;;;12.63;100.00;99297.91;5050288;28;20617;-56
2022/11/04 09:01:41;;;;;;;0.40;0.30;;;;;;;12.60;100.00;99298.91;5050085;28;20457;-56
2022/11/04 09:04:10;;;;;;;6.00;1.10;;;;;;;12.95;100.00;99291.72;5049913;28;20454;-56
2022/11/04 09:06:39;;;;;;;0.40;0.30;;;;;;;12.84;100.00;99286.09;5049784;28;20554;-56
2022/11/04 09:09:08;;;;;;;0.77;0.77;;;;;;;13.00;100.00;99286.13;5050180;28;20453;-55
2022/11/04 09:11:38;;;;;;;2.50;1.60;;;;;;;13.09;100.00;99288.28;5049856;28;20458;-55
2022/11/04 09:14:05;;;;;;;4.53;0.70;;;;;;;13.00;100.00;99286.13;5049885;28;20460;-54
2022/11/04 09:16:33;;;;;;;0.40;0.30;;;;;;;12.91;100.00;99286.63;5050146;28;20498;-56
2022/11/04 09:19:00;;;;;;;0.40;0.40;;;;;;;12.90;100.00;99287.59;5049920;28;20544;-56
2022/11/04 09:21:27;;;;;;;0.60;0.40;;;;;;;12.82;100.00;99287.13;5049782;28;20450;-56
2022/11/04 09:23:54;;;;;;;2.60;1.67;;;;;;;12.94;100.00;99290.00;5049288;28;20485;-56
2022/11/04 09:26:22;;;;;;;2.07;1.10;;;;;;;12.89;100.00;99289.38;5043173;28;20486;-56
2022/11/04 09:28:53;;;;;;;1.40;0.50;;;;;;;12.89;100.00;99300.06;5036539;28;20919;-56
2022/11/04 09:31:20;;;;;;;0.80;0.60;;;;;;;12.96;100.00;99296.09;5022503;28;20455;-56
2022/11/04 09:33:47;;;;;;;0.73;0.60;;;;;;;13.02;100.00;99295.78;5049451;28;20451;-56
2022/11/04 09:36:13;;;;;;;1.17;0.43;;;;;;;13.10;100.00;99289.16;5049385;28;20475;-56
2022/11/04 09:38:40;;;;;;;1.37;1.37;;;;;;;13.01;100.00;99299.38;5049332;28;20926;-56
2022/11/04 09:41:11;;;;;;;0.57;0.57;;;;;;;12.99;100.00;99300.41;5049127;28;20458;-56
2022/11/04 09:43:56;;;;;;;0.57;0.40;;;;;;;13.00;100.00;99310.97;5049510;28;20451;-56
2022/11/04 09:46:23;;;;;;;0.60;0.60;;;;;;;13.08;100.00;99307.91;5049231;28;20467;-56
2022/11/04 09:48:53;;;;;;;1.00;0.97;;;;;;;13.12;100.00;99311.25;5049372;28;20525;-56
2022/11/04 09:51:23;;;;;;;0.80;0.70;;;;;;;13.04;100.00;99312.56;5049438;28;20447;-56
2022/11/04 09:54:19;;;;;;;4.00;1.90;;;;;;;12.96;100.00;99319.25;5049186;28;20482;-56
2022/11/04 09:56:50;;;;;;;0.70;0.70;;;;;;;13.15;100.00;99321.75;5049313;28;20890;-56
2022/11/04 09:59:26;;;;;;;1.30;0.90;;;;;;;13.09;100.00;99322.97;5049216;28;20583;-56
2022/11/04 10:02:13;;;;;;;0.63;0.43;;;;;;;13.01;100.00;99334.03;5049055;28;20451;-56
2022/11/04 10:05:08;;;;;;;0.80;0.77;;;;;;;12.96;100.00;99328.09;5037033;28;20446;-56
2022/11/04 10:07:56;;;;;;;1.97;0.50;;;;;;;13.16;100.00;99339.53;5048874;28;20982;-56
2022/11/04 10:10:52;;;;;;;6.73;1.33;;;;;;;13.24;99.21;99335.50;5048818;28;20878;-56
2022/11/04 10:13:27;;;;;;;9.67;0.87;;;;;;;13.50;100.00;99344.75;5048845;28;20947;-56
2022/11/04 10:16:11;;;;;;;0.67;0.57;;;;;;;13.34;99.93;99344.75;5048693;28;20517;-56
2022/11/04 10:19:04;;;;;;;2.10;0.60;;;;;;;13.32;100.00;99343.97;5048997;28;20446;-56
2022/11/04 10:22:09;;;;;;;29.53;0.87;;;;;;;13.37;100.00;99342.84;5048697;28;20497;-56
2022/11/04 10:24:54;;;;;;;1.87;1.20;;;;;;;13.47;99.66;99333.38;5053619;28;20526;-56
2022/11/04 10:27:29;;;;;;;3.23;1.40;;;;;;;13.26;100.00;99336.28;5055408;28;20474;-56
2022/11/04 10:30:03;;;;;;;5.43;1.07;;;;;;;13.39;99.32;99333.81;5055779;28;20492;-56
2022/11/04 10:32:50;;;;;;;1.33;0.97;;;;;;;13.22;98.69;99340.06;5052517;28;20454;-56
2022/11/04 10:35:38;;;;;;;0.90;0.90;;;;;;;13.33;99.26;99343.03;5037691;28;20454;-56
2022/11/04 10:38:37;;;;;;;4.60;2.13;;;;;;;13.17;98.97;99328.78;5055143;28;20443;-56
2022/11/04 10:41:16;;;;;;;0.60;0.60;;;;;;;13.25;97.22;99325.69;5047764;28;20480;-56
2022/11/04 10:43:43;;;;;;;0.60;0.50;;;;;;;13.33;98.86;99329.69;5055535;28;20878;-56
2022/11/04 10:46:23;;;;;;;0.80;0.70;;;;;;;13.13;99.07;99329.00;5055071;28;20474;-56
2022/11/04 10:48:58;;;;;;;0.70;0.53;;;;;;;12.96;98.78;99330.78;5055409;28;20450;-56
2022/11/04 10:51:24;;;;;;;2.00;1.37;;;;;;;13.07;97.91;99318.66;5055350;28;20504;-56
2022/11/04 10:53:57;;;;;;;20.73;1.27;;;;;;;12.95;99.00;99328.19;5055262;28;20877;-56
2022/11/04 10:56:32;;;;;;;1.07;1.07;;;;;;;13.18;98.85;99319.84;5055192;28;20826;-56
2022/11/04 10:59:15;;;;;;;9.97;1.70;;;;;;;13.34;98.21;99323.38;5054948;28;20454;-56
2022/11/04 11:02:01;;;;;;;16.23;1.23;;;;;;;13.17;99.69;99320.75;5055292;28;20443;-56
2022/11/04 11:04:30;;;;;;;1.73;0.67;;;;;;;13.30;99.41;99326.31;5055787;28;20966;-56
2022/11/04 11:06:59;;;;;;;1.80;0.73;;;;;;;13.47;97.46;99328.91;5054975;28;20520;-56
2022/11/04 11:09:28;;;;;;;1.03;0.70;;;;;;;13.42;97.89;99320.28;5055153;28;20858;-56
2022/11/04 11:12:19;;;;;;;0.60;0.60;;;;;;;13.54;97.67;99329.41;5055038;28;20450;-56
2022/11/04 11:15:38;;;;;;;0.83;0.80;;;;;;;13.54;96.15;99327.59;5055178;28;20492;-56
2022/11/04 11:18:05;;;;;;;0.50;0.43;;;;;;;13.55;95.65;99323.13;5011533;28;20426;-56
2022/11/04 11:20:34;;;;;;;0.60;0.30;;;;;;;13.38;96.63;99325.88;5054962;28;20549;-56
2022/11/04 11:23:01;;;;;;;1.20;1.10;;;;;;;13.27;97.99;99321.13;5055084;28;20501;-56
2022/11/04 11:25:34;;;;;;;1.03;1.03;;;;;;;13.43;98.54;99319.34;5054762;28;20423;-56
2022/11/04 11:28:08;;;;;;;1.17;0.60;;;;;;;13.45;98.71;99308.59;5054786;28;20450;-56
2022/11/04 11:30:41;;;;;;;0.53;0.43;;;;;;;13.37;100.00;99310.81;5042630;28;20450;-56
2022/11/04 11:33:17;;;;;;;0.60;0.50;;;;;;;13.30;100.00;99310.31;5051825;28;20508;-56
2022/11/04 11:35:57;;;;;;;1.13;1.03;;;;;;;13.48;99.96;99314.59;5052893;28;20474;-56
2022/11/04 11:38:26;;;;;;;0.60;0.60;;;;;;;13.28;100.00;99310.38;5051347;28;20951;-56
2022/11/04 11:41:07;;;;;;;0.60;0.60;;;;;;;13.57;100.00;99310.56;5051526;28;20547;-56
2022/11/04 11:43:52;;;;;;;0.40;0.33;;;;;;;13.32;100.00;99313.75;5031948;28;20474;-56
2022/11/04 11:46:29;;;;;;;0.50;0.47;;;;;;;13.53;100.00;99315.19;5029895;28;20540;-56
2022/11/04 11:49:00;;;;;;;0.40;0.30;;;;;;;13.50;100.00;99306.50;5051322;28;20421;-56
2022/11/04 11:51:29;;;;;;;0.40;0.40;;;;;;;13.39;100.00;99314.25;5051692;28;20554;-56
2022/11/04 11:54:32;;;;;;;4.10;1.07;;;;;;;13.51;100.00;99308.22;5033765;28;20458;-56
2022/11/04 11:57:04;;;;;;;1.07;1.07;;;;;;;13.54;100.00;99313.38;5041515;28;20515;-56
2022/11/04 11:59:50;;;;;;;1.80;0.63;;;;;;;13.40;100.00;99318.66;5051489;28;20555;-56
2022/11/04 12:02:58;;;;;;;1.07;0.40;;;;;;;13.15;100.00;99317.28;5050867;28;20560;-56
2022/11/04 12:05:41;;;;;;;1.23;0.70;;;;;;;13.26;100.00;99314.06;5051245;28;20836;-56
2022/11/04 12:08:55;;;;;;;0.40;0.27;;;;;;;13.11;100.00;99314.88;5042303;28;21050;-56
2022/11/04 12:11:58;;;;;;;0.40;0.40;;;;;;;13.19;100.00;99320.72;5042014;28;20991;-56
2022/11/04 12:14:35;;;;;;;0.57;0.57;;;;;;;13.10;100.00;99318.50;5038254;28;20458;-56
2022/11/04 12:17:05;;;;;;;2.30;0.87;;;;;;;12.98;100.00;99320.88;5050698;28;20497;-56
2022/11/04 12:19:39;;;;;;;1.90;0.50;;;;;;;13.22;100.00;99324.06;5051108;28;20491;-56
2022/11/04 12:22:14;;;;;;;0.40;0.40;;;;;;;13.18;100.00;99322.50;5050697;28;20457;-56